Time,TemperatureF,DewpointF,PressureIn,WindDirection,WindDirectionDegrees,WindSpeedMPH,WindSpeedGustMPH,Humidity,HourlyPrecipIn,Conditions,Clouds,dailyrainin,SoftwareType,DateUTC
2013-09-26 00:14:00,53.0,50.0,29.98,ESE,121,0.0,0.0,88,0.00,,,0.00,,2013-09-26 04:14:00,
2013-09-26 00:24:00,53.0,50.0,29.98,ESE,120,0.0,0.0,89,0.00,,,0.00,,2013-09-26 04:24:00,
2013-09-26 00:54:00,53.0,50.0,29.98,ESE,120,0.0,0.0,89,0.00,,,0.00,,2013-09-26 04:54:00,
2013-09-26 01:13:00,52.0,49.0,29.98,ESE,120,0.0,0.0,89,0.00,,,0.00,,2013-09-26 05:13:00,
2013-09-26 01:23:00,52.0,49.0,29.98,ESE,120,0.0,0.0,89,0.00,,,0.00,,2013-09-26 05:23:00,
2013-09-26 01:43:00,51.0,48.0,29.97,ESE,121,0.0,0.0,90,0.00,,,0.00,,2013-09-26 05:43:00,
2013-09-26 01:52:00,51.0,48.0,29.97,ESE,121,0.0,0.0,90,0.00,,,0.00,,2013-09-26 05:52:00,
2013-09-26 02:13:00,51.0,48.0,29.97,ESE,121,0.0,0.0,91,0.00,,,0.00,,2013-09-26 06:13:00,
2013-09-26 02:22:00,51.0,48.0,29.98,ESE,121,0.0,0.0,91,0.00,,,0.00,,2013-09-26 06:22:00,
2013-09-26 02:42:00,51.0,48.0,29.98,ESE,121,0.0,0.0,91,0.00,,,0.00,,2013-09-26 06:42:00,
2013-09-26 02:53:00,51.0,48.0,29.97,ESE,121,0.0,0.0,91,0.00,,,0.00,,2013-09-26 06:53:00,
2013-09-26 03:02:00,51.0,48.0,29.97,ESE,121,0.0,0.0,91,0.00,,,0.00,,2013-09-26 07:02:00,
2013-09-26 03:12:00,51.0,48.0,29.97,ESE,121,0.0,0.0,91,0.00,,,0.00,,2013-09-26 07:12:00,
2013-09-26 03:22:00,51.0,48.0,29.98,ESE,120,0.0,0.0,90,0.00,,,0.00,,2013-09-26 07:22:00,
2013-09-26 03:42:00,50.0,47.0,29.97,ESE,121,0.0,0.0,90,0.00,,,0.00,,2013-09-26 07:42:00,
2013-09-26 03:53:00,50.0,47.0,29.97,ESE,121,0.0,0.0,90,0.00,,,0.00,,2013-09-26 07:53:00,
2013-09-26 04:11:00,50.0,47.0,29.98,ESE,120,0.0,0.0,91,0.00,,,0.00,,2013-09-26 08:11:00,
2013-09-26 04:22:00,50.0,48.0,29.98,ESE,120,0.0,0.0,92,0.00,,,0.00,,2013-09-26 08:22:00,
2013-09-26 04:42:00,49.0,47.0,29.98,ESE,121,0.0,0.0,93,0.00,,,0.00,,2013-09-26 08:42:00,
2013-09-26 04:52:00,49.0,47.0,29.98,ESE,121,0.0,0.0,93,0.00,,,0.00,,2013-09-26 08:52:00,
2013-09-26 05:11:00,49.0,47.0,29.98,ESE,120,0.0,0.0,93,0.00,,,0.00,,2013-09-26 09:11:00,
2013-09-26 05:22:00,49.0,47.0,29.98,ESE,120,0.0,0.0,93,0.00,,,0.00,,2013-09-26 09:22:00,
2013-09-26 05:43:00,50.0,47.0,29.99,ESE,120,0.0,0.0,90,0.00,,,0.00,,2013-09-26 09:43:00,
2013-09-26 05:54:00,50.0,47.0,29.99,ESE,121,0.0,0.0,89,0.00,,,0.00,,2013-09-26 09:54:00,
2013-09-26 06:12:00,50.0,47.0,29.99,ESE,121,0.0,0.0,88,0.00,,,0.00,,2013-09-26 10:12:00,
2013-09-26 06:23:00,50.0,47.0,29.99,ESE,121,0.0,0.0,88,0.00,,,0.00,,2013-09-26 10:23:00,
2013-09-26 06:42:00,49.0,46.0,30.00,ESE,121,0.0,0.0,88,0.00,,,0.00,,2013-09-26 10:42:00,
2013-09-26 06:53:00,49.0,45.0,30.00,ESE,121,0.0,0.0,87,0.00,,,0.00,,2013-09-26 10:53:00,
2013-09-26 07:12:00,49.0,46.0,30.01,ESE,121,0.0,0.0,88,0.00,,,0.00,,2013-09-26 11:12:00,
2013-09-26 07:22:00,49.0,46.0,30.01,ESE,121,0.0,0.0,88,0.00,,,0.00,,2013-09-26 11:22:00,
2013-09-26 07:42:00,49.0,46.0,30.01,ESE,121,0.0,0.0,89,0.00,,,0.00,,2013-09-26 11:42:00,
2013-09-26 07:52:00,49.0,46.0,30.01,ESE,121,0.0,0.0,89,0.00,,,0.00,,2013-09-26 11:52:00,
2013-09-26 08:12:00,49.0,46.0,30.02,ESE,121,0.0,0.0,89,0.00,,,0.00,,2013-09-26 12:12:00,
2013-09-26 08:22:00,49.0,46.0,30.02,ESE,121,0.0,0.0,89,0.00,,,0.00,,2013-09-26 12:22:00,
2013-09-26 08:42:00,50.0,47.0,30.03,ESE,121,0.0,0.0,88,0.00,,,0.00,,2013-09-26 12:42:00,
2013-09-26 08:52:00,53.0,48.0,30.03,ESE,121,0.0,0.0,83,0.00,,,0.00,,2013-09-26 12:52:00,
2013-09-26 09:12:00,55.0,49.0,30.03,ESE,121,0.0,0.0,80,0.00,,,0.00,,2013-09-26 13:12:00,
2013-09-26 09:42:00,59.0,50.0,30.04,ESE,121,0.0,0.0,71,0.00,,,0.00,,2013-09-26 13:42:00,
2013-09-26 09:52:00,59.0,50.0,30.04,ESE,121,0.0,0.0,71,0.00,,,0.00,,2013-09-26 13:52:00,
2013-09-26 10:11:00,59.0,50.0,30.05,ESE,121,0.0,0.0,71,0.00,,,0.00,,2013-09-26 14:11:00,
2013-09-26 10:22:00,60.0,50.0,30.05,ESE,121,0.0,1.0,69,0.00,,,0.00,,2013-09-26 14:22:00,
2013-09-26 10:42:00,62.0,51.0,30.06,SE,134,0.0,3.0,68,0.00,,,0.00,,2013-09-26 14:42:00,
2013-09-26 10:52:00,62.0,50.0,30.06,ENE,72,0.0,4.0,65,0.00,,,0.00,,2013-09-26 14:52:00,
2013-09-26 11:11:00,64.0,52.0,30.06,SE,135,0.0,4.0,64,0.00,,,0.00,,2013-09-26 15:11:00,
2013-09-26 11:22:00,64.0,52.0,30.06,SE,135,0.0,4.0,64,0.00,,,0.00,,2013-09-26 15:22:00,
2013-09-26 11:44:00,64.0,52.0,30.06,South,175,4.0,7.0,64,0.00,,,0.00,,2013-09-26 15:44:00,
2013-09-26 11:54:00,64.0,52.0,30.06,South,175,4.0,7.0,64,0.00,,,0.00,,2013-09-26 15:54:00,
2013-09-26 12:04:00,64.0,52.0,30.06,South,175,4.0,7.0,64,0.00,,,0.00,,2013-09-26 16:04:00,
2013-09-26 12:13:00,64.0,52.0,30.06,South,175,4.0,7.0,64,0.00,,,0.00,,2013-09-26 16:13:00,
2013-09-26 12:24:00,67.0,52.0,30.06,ENE,77,3.0,7.0,58,0.00,,,0.00,,2013-09-26 16:24:00,
2013-09-26 12:43:00,67.0,52.0,30.06,SE,144,0.0,7.0,58,0.00,,,0.00,,2013-09-26 16:43:00,
2013-09-26 12:53:00,68.0,51.0,30.06,SSE,159,0.0,7.0,54,0.00,,,0.00,,2013-09-26 16:53:00,
2013-09-26 13:12:00,69.0,54.0,30.06,NNE,13,0.0,5.0,58,0.00,,,0.00,,2013-09-26 17:12:00,
2013-09-26 13:23:00,70.0,54.0,30.06,WNW,294,3.0,5.0,57,0.00,,,0.00,,2013-09-26 17:23:00,
2013-09-26 13:52:00,68.0,54.0,30.06,SW,234,2.0,6.0,60,0.00,,,0.00,,2013-09-26 17:52:00,
2013-09-26 14:02:00,68.0,54.0,30.06,SW,234,2.0,6.0,60,0.00,,,0.00,,2013-09-26 18:02:00,
2013-09-26 14:13:00,68.0,54.0,30.06,SW,234,2.0,6.0,60,0.00,,,0.00,,2013-09-26 18:13:00,
2013-09-26 14:22:00,69.0,54.0,30.05,WNW,294,1.0,9.0,59,0.00,,,0.00,,2013-09-26 18:22:00,
2013-09-26 14:42:00,68.0,54.0,30.04,NNW,345,9.0,10.0,60,0.00,,,0.00,,2013-09-26 18:42:00,
2013-09-26 14:52:00,68.0,54.0,30.04,NNW,345,9.0,10.0,60,0.00,,,0.00,,2013-09-26 18:52:00,
2013-09-26 15:12:00,69.0,53.0,30.05,NNW,327,1.0,13.0,57,0.00,,,0.00,,2013-09-26 19:12:00,
2013-09-26 15:22:00,69.0,53.0,30.05,NNW,327,1.0,13.0,57,0.00,,,0.00,,2013-09-26 19:22:00,
2013-09-26 15:44:00,69.0,52.0,30.05,NNW,340,0.0,5.0,55,0.00,,,0.00,,2013-09-26 19:44:00,
2013-09-26 15:52:00,69.0,52.0,30.04,North,355,0.0,5.0,55,0.00,,,0.00,,2013-09-26 19:52:00,
2013-09-26 16:12:00,71.0,54.0,30.04,West,264,0.0,3.0,56,0.00,,,0.00,,2013-09-26 20:12:00,
2013-09-26 16:23:00,70.0,53.0,30.05,NW,308,2.0,7.0,55,0.00,,,0.00,,2013-09-26 20:23:00,
2013-09-26 16:32:00,70.0,53.0,30.05,NW,308,2.0,7.0,55,0.00,,,0.00,,2013-09-26 20:32:00,
2013-09-26 16:43:00,70.0,53.0,30.05,NW,308,2.0,7.0,55,0.00,,,0.00,,2013-09-26 20:43:00,
2013-09-26 16:52:00,70.0,53.0,30.05,NW,308,2.0,7.0,55,0.00,,,0.00,,2013-09-26 20:52:00,
2013-09-26 17:23:00,68.0,53.0,30.04,NNW,329,11.0,14.0,59,0.00,,,0.00,,2013-09-26 21:23:00,
2013-09-26 17:44:00,68.0,53.0,30.05,WNW,302,0.0,4.0,59,0.00,,,0.00,,2013-09-26 21:44:00,
2013-09-26 17:54:00,68.0,53.0,30.05,North,5,5.0,7.0,59,0.00,,,0.00,,2013-09-26 21:54:00,
2013-09-26 18:14:00,68.0,53.0,30.06,WNW,291,2.0,6.0,59,0.00,,,0.00,,2013-09-26 22:14:00,
2013-09-26 18:24:00,68.0,54.0,30.06,NW,306,0.0,5.0,62,0.00,,,0.00,,2013-09-26 22:24:00,
2013-09-26 18:43:00,67.0,54.0,30.07,WNW,300,0.0,2.0,62,0.00,,,0.00,,2013-09-26 22:43:00,
2013-09-26 18:54:00,65.0,53.0,30.07,NW,311,1.0,2.0,66,0.00,,,0.00,,2013-09-26 22:54:00,
2013-09-26 19:12:00,63.0,53.0,30.08,WNW,292,0.0,1.0,70,0.00,,,0.00,,2013-09-26 23:12:00,
2013-09-26 19:23:00,62.0,52.0,30.09,WNW,292,0.0,1.0,70,0.00,,,0.00,,2013-09-26 23:23:00,
2013-09-26 19:42:00,61.0,52.0,30.09,WNW,292,0.0,0.0,72,0.00,,,0.00,,2013-09-26 23:42:00,
2013-09-26 19:53:00,61.0,52.0,30.09,WNW,292,0.0,0.0,72,0.00,,,0.00,,2013-09-26 23:53:00,
2013-09-26 20:02:00,61.0,52.0,30.09,WNW,292,0.0,0.0,72,0.00,,,0.00,,2013-09-27 00:02:00,
2013-09-26 20:22:00,59.0,51.0,30.11,WNW,292,0.0,0.0,74,0.00,,,0.00,,2013-09-27 00:22:00,
2013-09-26 20:43:00,59.0,51.0,30.09,WNW,292,0.0,0.0,74,0.00,,,0.00,,2013-09-27 00:43:00,
2013-09-26 20:52:00,59.0,51.0,30.10,WNW,292,0.0,0.0,75,0.00,,,0.00,,2013-09-27 00:52:00,
2013-09-26 21:12:00,58.0,50.0,30.10,WNW,292,0.0,0.0,75,0.00,,,0.00,,2013-09-27 01:12:00,
2013-09-26 21:23:00,58.0,50.0,30.11,WNW,292,0.0,0.0,74,0.00,,,0.00,,2013-09-27 01:23:00,
2013-09-26 21:42:00,58.0,50.0,30.11,WNW,292,0.0,0.0,74,0.00,,,0.00,,2013-09-27 01:42:00,
2013-09-26 21:52:00,57.0,48.0,30.11,WNW,292,0.0,0.0,72,0.00,,,0.00,,2013-09-27 01:52:00,
2013-09-26 22:02:00,57.0,48.0,30.11,WNW,292,0.0,0.0,72,0.00,,,0.00,,2013-09-27 02:02:00,
2013-09-26 22:12:00,57.0,48.0,30.11,WNW,292,0.0,0.0,72,0.00,,,0.00,,2013-09-27 02:12:00,
2013-09-26 22:22:00,57.0,48.0,30.11,WNW,292,0.0,0.0,72,0.00,,,0.00,,2013-09-27 02:22:00,
2013-09-26 22:53:00,56.0,45.0,30.11,WNW,292,0.0,0.0,67,0.00,,,0.00,,2013-09-27 02:53:00,
2013-09-26 23:12:00,56.0,46.0,30.12,WNW,292,0.0,0.0,68,0.00,,,0.00,,2013-09-27 03:12:00,
2013-09-26 23:22:00,56.0,46.0,30.12,WNW,292,0.0,0.0,68,0.00,,,0.00,,2013-09-27 03:22:00,
2013-09-26 23:44:00,55.0,44.0,30.11,WNW,292,0.0,0.0,67,0.00,,,0.00,,2013-09-27 03:44:00,
2013-09-26 23:55:00,55.0,45.0,30.11,WNW,292,0.0,0.0,69,0.00,,,0.00,,2013-09-27 03:55:00,